GOGS

Cap Skirring Airport

Cap Skirring, Senegal
METAR GOGS 232200Z VRB04KT CAVOK 19/15 Q1011
Observed Flight Rules
Feb-23 @ 22:00 UTC (35 minutes ago) Visual Flight Rules
Wind Visibility Clouds
Variable at 4 knots 10,000+ meters
  • Clear skies
Temperatures Readings
Current 19°C / 66°F
Dewpoint 15°C / 59°F
Humidity 78%
Altimeter 29.85" Hg
Pressure 1011 hPa
Elevation 13
METAR GOGS 232200Z VRB04KT CAVOK 19/15 Q1011
Observed Flight Rules
Feb-23 @ 22:00 UTC
(35 minutes ago)
VFR
Wind Visibility
Variable at 4 knots 10,000+ meters
Clouds
  • Clear skies
Temperature Dewpoint
19°C / 66°F 15°C / 59°F
Humidity Altimeter Pressure
78% 29.85" Hg 1011 hPa